KDWH/DWH METAR and TAF weather

Enter ICAO airport designator
Station Type Date Time Source
KDWH METAR 2020/02/21 14:53 UTC NOAA

KDWH 211453Z 03010KT 10SM CLR 06/00 A3067 RMK AO2 SLP385 T00560000 51020


Station Type Date Time Source
KDWH Decoded METAR 2020/02/21 14:53 UTC NOAA

HOUSTON HOOKS MEMORIAL, TX, United States (KDWH) 30-04N 95-33W 46M
Feb 21, 2020 - 09:53 AM EST / 2020.02.21 1453 UTC
Wind: from the NNE (030 degrees) at 12 MPH (10 KT):0
Visibility: 10 mile(s):0
Sky conditions: clear
Temperature: 42.1 F (5.6 C)
Dew Point: 32.0 F (0.0 C)
Relative Humidity: 67%
Pressure (altimeter): 30.67 in. Hg (1038 hPa)
Pressure tendency: 0.06 inches (2.0 hPa) higher than three hours ago
ob: KDWH 211453Z 03010KT 10SM CLR 06/00 A3067 RMK AO2 SLP385 T00560000 51020
cycle: 15

Station Type Date Time Source
KDWH TAF 2017/02/07 15:09 UTC NOAA

TAF
AMD KDWH 071507Z 0715/0812 23010KT P6SM BKN015
TEMPO 0715/0719 SCT015
FM071900 25010KT P6SM SCT025
FM080100 22005KT P6SM SCT250
TEMPO 0807/0809 3SM BR BKN013
FM080900 VRB03KT 2SM BR OVC008

Example: see airport list